Pierce, Oklahoma
Current Conditions -  °F | °C
As of 8:53 AM on Wednesday 22 Oct 2014 (Local Time) from KMKO Reporting Station
Clear Clear  
Wind Chill: 60°   Ceiling: Unl
Heat Index: 60°   Visibility: 10mi
Dew Point: 55°   Wind: 6mph
Humidity: 83%   Direction: 150°SSE
Pressure: 30.2"   Gusts: NA
Location:  35.4498°N, 95.4869°W
Report Text: KMKO 221353Z AUTO 15005KT 10SM CLR 16/13 A3020 RMK AO2 SLP223 T01560128
Loading
Personal Weather Stations






























Interactive Weather Map
Tropical Storm Tracking
New forecast layout! Learn more

10-Day Weather Forecast

Advertisements
Track Severe Weather on mobile